Time;durP1;ratioP1;P1;durP2;ratioP2;P2;SDS_P1;SDS_P2;PMS_P1;PMS_P2;Temp;Humidity;BMP_temperature;BMP_pressure;BME280_temperature;BME280_humidity;BME280_pressure;Samples;Min_cycle;Max_cycle;Signal;HPM_P1;HPM_P2
2022/09/25 00:00:56;;;;;;;5.72;2.87;;;;;;;8.41;72.54;100424.46;1704320;82;21734;-60
2022/09/25 00:03:24;;;;;;;4.80;2.27;;;;;;;8.36;72.67;100416.42;1704128;83;20995;-60
2022/09/25 00:05:50;;;;;;;5.10;2.50;;;;;;;8.33;72.75;100419.26;1706439;82;21054;-60
2022/09/25 00:08:18;;;;;;;6.08;2.70;;;;;;;8.34;72.72;100425.36;1739376;80;21546;-60
2022/09/25 00:10:49;;;;;;;5.58;2.90;;;;;;;8.37;72.61;100422.05;1734169;81;21043;-60
2022/09/25 00:13:19;;;;;;;5.97;3.25;;;;;;;8.38;72.59;100425.50;1739309;80;21638;-60
2022/09/25 00:15:53;;;;;;;9.20;3.10;;;;;;;8.34;72.67;100430.61;1746200;80;21101;-60
2022/09/25 00:21:06;;;;;;;7.50;3.00;;;;;;;8.25;72.90;100419.44;1745370;81;21096;-60
2022/09/25 00:23:33;;;;;;;5.50;2.60;;;;;;;8.24;72.90;100422.98;1698289;83;21042;-60
2022/09/25 00:26:01;;;;;;;5.60;3.05;;;;;;;8.28;72.78;100412.19;1747107;81;21500;-61
2022/09/25 00:28:28;;;;;;;5.80;2.92;;;;;;;8.27;72.77;100425.40;1745078;81;21076;-61
2022/09/25 00:30:55;;;;;;;5.78;2.83;;;;;;;8.25;72.77;100425.98;1741159;80;21029;-61
2022/09/25 00:33:22;;;;;;;6.25;3.10;;;;;;;8.19;72.87;100421.54;1741103;80;21155;-61
2022/09/25 00:35:49;;;;;;;8.10;3.08;;;;;;;8.16;72.99;100426.16;1744739;80;21266;-61
2022/09/25 00:38:16;;;;;;;5.72;2.58;;;;;;;8.16;72.96;100422.23;1738195;81;21109;-61
2022/09/25 00:40:42;;;;;;;6.50;3.10;;;;;;;8.18;72.86;100421.64;1742781;82;21043;-61
2022/09/25 00:43:17;;;;;;;5.75;2.80;;;;;;;8.17;72.88;100430.47;1742305;80;21105;-61
2022/09/25 00:45:44;;;;;;;6.67;3.52;;;;;;;8.13;73.03;100419.81;1723490;82;21777;-61
2022/09/25 00:48:13;;;;;;;5.75;2.90;;;;;;;8.08;73.15;100423.23;1743868;81;21023;-61
2022/09/25 00:50:51;;;;;;;5.72;2.87;;;;;;;8.04;73.24;100418.67;1745016;81;21038;-61
2022/09/25 00:53:23;;;;;;;6.00;3.12;;;;;;;8.07;73.21;100422.84;1746685;81;21551;-61
2022/09/25 00:55:49;;;;;;;7.20;2.92;;;;;;;8.07;73.22;100430.71;1747554;81;21041;-61
2022/09/25 00:58:18;;;;;;;6.55;2.77;;;;;;;8.03;73.32;100420.09;1743643;80;21250;-61
2022/09/25 01:00:45;;;;;;;5.92;2.75;;;;;;;7.98;73.46;100423.02;1706015;82;21034;-61
2022/09/25 01:03:11;;;;;;;5.25;2.50;;;;;;;7.95;73.52;100421.46;1699273;83;21059;-61
2022/09/25 01:05:41;;;;;;;6.72;3.25;;;;;;;7.98;73.45;100422.56;1704496;83;21030;-61
2022/09/25 01:08:14;;;;;;;7.05;3.35;;;;;;;7.99;73.43;100422.91;1698717;83;21564;-61
2022/09/25 01:10:41;;;;;;;5.55;3.15;;;;;;;7.97;73.46;100425.28;1698068;83;21509;-61
2022/09/25 01:13:07;;;;;;;7.75;3.70;;;;;;;7.94;73.56;100430.25;1706301;83;21518;-60
2022/09/25 01:16:07;;;;;;;6.58;2.95;;;;;;;7.90;73.62;100430.11;1701833;82;21552;-60
2022/09/25 01:18:48;;;;;;;5.30;2.65;;;;;;;7.91;73.59;100425.70;1701258;83;21693;-59
2022/09/25 01:21:23;;;;;;;10.30;3.70;;;;;;;7.94;73.39;100429.42;1703860;83;21148;-61
2022/09/25 01:24:10;;;;;;;6.05;3.42;;;;;;;7.94;73.46;100429.42;1706421;83;21218;-60
2022/09/25 01:27:09;;;;;;;6.08;3.27;;;;;;;7.88;73.47;100424.11;1697729;82;21069;-60
2022/09/25 01:29:46;;;;;;;10.45;2.95;;;;;;;7.80;73.67;100431.20;1697366;82;21110;-60
2022/09/25 01:32:50;;;;;;;5.60;2.87;;;;;;;7.79;73.80;100429.98;1706686;83;21046;-60
2022/09/25 01:35:42;;;;;;;5.35;3.00;;;;;;;7.80;73.74;100429.03;1704538;83;21039;-60
2022/09/25 01:38:26;;;;;;;3.72;1.47;;;;;;;7.76;73.86;100428.40;1702565;83;21165;-60
2022/09/25 01:41:03;;;;;;;8.65;3.47;;;;;;;7.72;73.99;100430.05;1695461;83;21032;-60
2022/09/25 01:43:47;;;;;;;6.25;3.10;;;;;;;7.65;74.16;100434.86;1701961;83;21077;-60
2022/09/25 01:46:24;;;;;;;7.20;3.42;;;;;;;7.64;74.23;100429.23;1671974;84;21051;-60
2022/09/25 01:48:59;;;;;;;6.62;3.60;;;;;;;7.67;74.17;100424.28;1692483;83;21133;-60
2022/09/25 01:51:33;;;;;;;7.80;3.58;;;;;;;7.67;74.19;100429.52;1702672;83;21557;-60
2022/09/25 01:54:07;;;;;;;4.22;1.70;;;;;;;7.60;74.27;100422.06;1703867;83;21046;-60
2022/09/25 01:56:39;;;;;;;6.33;3.45;;;;;;;7.56;74.44;100427.59;1700142;83;21070;-60
2022/09/25 01:59:09;;;;;;;6.00;3.30;;;;;;;7.51;74.61;100426.59;1698789;83;21043;-61
2022/09/25 02:01:39;;;;;;;7.85;3.42;;;;;;;7.53;74.61;100432.59;1703842;83;21067;-60
2022/09/25 02:04:20;;;;;;;6.90;3.72;;;;;;;7.55;74.54;100422.84;1699120;83;21063;-60
2022/09/25 02:06:48;;;;;;;6.30;2.20;;;;;;;7.51;74.69;100429.20;1702492;83;21141;-60
2022/09/25 02:09:43;;;;;;;10.50;3.83;;;;;;;7.48;74.86;100424.64;1698551;82;21059;-60
2022/09/25 02:12:14;;;;;;;6.87;2.05;;;;;;;7.44;75.08;100433.18;1702655;83;21082;-60
2022/09/25 02:14:49;;;;;;;6.92;3.65;;;;;;;7.43;75.14;100431.04;1702599;83;21607;-60
2022/09/25 02:22:56;;;;;;;6.00;3.52;;;;;;;7.40;75.37;100438.27;1700700;83;21071;-60
2022/09/25 02:25:39;;;;;;;5.45;2.08;;;;;;;7.38;75.47;100434.88;1705805;83;21367;-60
2022/09/25 02:28:05;;;;;;;6.60;3.65;;;;;;;7.38;75.49;100434.88;1701607;83;21710;-60
2022/09/25 02:30:32;;;;;;;9.55;4.12;;;;;;;7.40;75.52;100427.79;1703375;83;21229;-60
2022/09/25 02:32:58;;;;;;;4.35;1.52;;;;;;;7.40;75.55;100431.72;1703552;82;21028;-60
2022/09/25 02:35:25;;;;;;;7.03;3.72;;;;;;;7.36;75.68;100435.45;1702022;83;21031;-60
2022/09/25 02:37:52;;;;;;;8.33;4.17;;;;;;;7.32;75.83;100441.84;1701505;83;22254;-60
2022/09/25 02:40:19;;;;;;;6.53;3.80;;;;;;;7.32;75.82;100434.00;1697290;82;21078;-60
2022/09/25 02:42:56;;;;;;;7.12;4.10;;;;;;;7.35;75.72;100433.32;1698969;82;21211;-60
2022/09/25 02:45:38;;;;;;;7.00;3.62;;;;;;;7.37;75.71;100439.29;1701927;82;22055;-60
2022/09/25 02:48:42;;;;;;;6.90;4.10;;;;;;;7.33;75.82;100440.89;1714838;82;21117;-60
2022/09/25 02:51:26;;;;;;;4.78;1.80;;;;;;;7.29;75.98;100442.88;1701287;82;21038;-60
2022/09/25 02:54:12;;;;;;;8.88;3.70;;;;;;;7.28;76.04;100435.98;1737055;81;21047;-60
2022/09/25 02:56:55;;;;;;;5.95;2.05;;;;;;;7.32;75.91;100430.08;1735666;81;21192;-60
2022/09/25 02:59:26;;;;;;;8.70;4.20;;;;;;;7.32;75.93;100432.21;1741136;80;21031;-60
2022/09/25 03:01:54;;;;;;;6.87;4.20;;;;;;;7.31;76.05;100438.84;1748417;81;21012;-60
2022/09/25 03:04:20;;;;;;;7.37;3.87;;;;;;;7.25;76.15;100428.33;1745699;81;21035;-59
2022/09/25 03:06:47;;;;;;;6.37;1.85;;;;;;;7.29;76.07;100432.88;1738145;81;21094;-60
2022/09/25 03:09:13;;;;;;;9.10;4.25;;;;;;;7.33;75.99;100446.13;1734922;80;21127;-60
2022/09/25 03:11:42;;;;;;;6.10;3.80;;;;;;;7.33;75.88;100430.42;1730546;80;21050;-60
2022/09/25 03:14:08;;;;;;;10.40;4.28;;;;;;;7.32;75.95;100427.45;1732593;81;21039;-60
2022/09/25 03:16:51;;;;;;;5.17;2.10;;;;;;;7.29;76.01;100431.58;1736681;80;21043;-60
2022/09/25 03:19:20;;;;;;;8.15;3.95;;;;;;;7.29;76.00;100445.97;1733084;81;21035;-59
2022/09/25 03:21:47;;;;;;;6.37;3.45;;;;;;;7.33;75.84;100431.28;1735388;81;22292;-60
2022/09/25 03:24:14;;;;;;;6.10;3.70;;;;;;;7.38;75.71;100430.51;1729423;81;21149;-60
2022/09/25 03:26:41;;;;;;;6.87;3.90;;;;;;;7.36;75.66;100438.94;1702311;83;21051;-60
2022/09/25 03:29:08;;;;;;;7.72;4.20;;;;;;;7.33;75.73;100447.44;1701515;82;21517;-60
2022/09/25 03:31:35;;;;;;;8.38;3.92;;;;;;;7.32;75.73;100443.16;1702095;84;21098;-60
2022/09/25 03:34:02;;;;;;;7.85;3.98;;;;;;;7.37;75.54;100449.76;1733778;82;21568;-60
2022/09/25 03:36:29;;;;;;;7.58;3.83;;;;;;;7.40;75.43;100444.33;1731765;81;21477;-60
2022/09/25 03:38:57;;;;;;;6.58;4.30;;;;;;;7.36;75.46;100453.78;1736113;81;21086;-60
2022/09/25 03:41:27;;;;;;;6.78;3.90;;;;;;;7.33;75.54;100453.98;1728302;80;21125;-60
2022/09/25 03:43:55;;;;;;;6.37;3.27;;;;;;;7.33;75.55;100453.53;1733720;81;21109;-60
2022/09/25 03:46:24;;;;;;;8.90;4.00;;;;;;;7.36;75.43;100451.16;1730836;80;22178;-60
2022/09/25 03:48:53;;;;;;;6.90;4.12;;;;;;;7.39;75.29;100449.19;1736330;81;21058;-60
2022/09/25 03:51:20;;;;;;;7.53;3.95;;;;;;;7.36;75.33;100453.78;1752736;80;21049;-60
2022/09/25 03:53:47;;;;;;;6.08;3.80;;;;;;;7.33;75.37;100450.05;1747406;81;21481;-60
2022/09/25 03:56:21;;;;;;;7.47;3.80;;;;;;;7.33;75.39;100457.91;1747433;81;21047;-60
2022/09/25 03:58:49;;;;;;;7.42;3.80;;;;;;;7.36;75.24;100462.95;1750578;81;21119;-60
2022/09/25 04:01:15;;;;;;;7.35;4.17;;;;;;;7.39;75.16;100456.20;1753624;80;21117;-60
2022/09/25 04:04:44;;;;;;;6.62;3.92;;;;;;;7.44;75.31;100455.43;1821501;77;22713;-60
2022/09/25 04:07:11;;;;;;;7.10;1.90;;;;;;;7.45;74.74;100462.36;1784303;80;21002;-60
2022/09/25 04:09:39;;;;;;;8.15;3.70;;;;;;;7.42;74.77;100463.86;1782961;78;21092;-60
2022/09/25 04:12:06;;;;;;;7.33;4.00;;;;;;;7.47;74.68;100459.16;1773346;80;21053;-60
2022/09/25 04:14:33;;;;;;;6.33;3.70;;;;;;;7.50;74.66;100464.20;1774335;78;21015;-60
2022/09/25 04:16:59;;;;;;;6.85;4.08;;;;;;;7.48;74.68;100463.47;1768418;78;21132;-60
2022/09/25 04:19:25;;;;;;;7.35;4.17;;;;;;;7.45;74.73;100471.52;1776241;79;20997;-60
2022/09/25 04:21:52;;;;;;;7.08;3.75;;;;;;;7.45;74.69;100464.98;1770608;78;21309;-60
2022/09/25 04:27:04;;;;;;;4.60;1.87;;;;;;;7.53;74.39;100469.24;1780461;78;21174;-60
2022/09/25 04:29:31;;;;;;;7.60;4.33;;;;;;;7.53;74.46;100478.86;1762327;80;21051;-61
2022/09/25 04:34:42;;;;;;;7.85;4.05;;;;;;;7.52;74.43;100480.64;1770803;78;21157;-60
2022/09/25 04:37:09;;;;;;;8.95;4.33;;;;;;;7.58;74.23;100477.63;1765473;80;21171;-61
2022/09/25 04:39:35;;;;;;;7.67;4.58;;;;;;;7.62;73.96;100479.58;1778425;78;21377;-60
2022/09/25 04:42:02;;;;;;;8.40;3.87;;;;;;;7.66;73.98;100474.97;1768928;79;21485;-61
2022/09/25 04:44:29;;;;;;;10.50;3.95;;;;;;;7.67;73.84;100475.35;1773644;78;21027;-60
2022/09/25 04:46:57;;;;;;;11.30;3.75;;;;;;;7.67;73.71;100480.59;1769159;78;21314;-63
2022/09/25 04:49:24;;;;;;;6.62;3.33;;;;;;;7.78;73.47;100475.00;1773614;79;21007;-61
2022/09/25 04:51:51;;;;;;;6.90;3.75;;;;;;;7.84;73.45;100477.67;1785980;79;21034;-61
2022/09/25 04:54:18;;;;;;;6.47;3.70;;;;;;;7.86;73.37;100474.47;1778998;78;21021;-61
2022/09/25 04:56:44;;;;;;;6.30;3.40;;;;;;;7.89;73.30;100490.47;1781500;79;21076;-61
2022/09/25 04:59:10;;;;;;;7.80;3.80;;;;;;;7.91;73.08;100488.09;1777481;78;21142;-61
2022/09/25 05:01:37;;;;;;;6.45;3.70;;;;;;;8.03;72.63;100494.29;1775206;79;21078;-61
2022/09/25 05:04:04;;;;;;;7.45;4.22;;;;;;;8.07;72.39;100484.44;1777784;79;22175;-61
2022/09/25 05:06:31;;;;;;;12.33;4.17;;;;;;;8.09;72.21;100478.64;1759037;80;21047;-61
2022/09/25 05:08:58;;;;;;;7.53;4.28;;;;;;;8.10;72.30;100482.47;1759481;80;21062;-61
2022/09/25 05:11:24;;;;;;;6.42;3.77;;;;;;;8.15;72.20;100476.89;1754861;79;22031;-61
2022/09/25 05:13:51;;;;;;;6.22;3.60;;;;;;;8.27;71.74;100490.48;1758626;79;21030;-61
2022/09/25 05:16:19;;;;;;;7.85;3.60;;;;;;;8.34;71.57;100491.73;1759783;80;21107;-61
2022/09/25 05:18:45;;;;;;;8.10;3.60;;;;;;;8.39;71.50;100487.49;1775403;79;21093;-61
2022/09/25 05:21:12;;;;;;;7.37;4.03;;;;;;;8.41;71.52;100484.77;1707795;82;21015;-61
2022/09/25 05:23:38;;;;;;;6.67;3.70;;;;;;;8.45;71.49;100490.19;1691902;82;21277;-61
2022/09/25 05:26:05;;;;;;;5.58;3.37;;;;;;;8.54;71.25;100489.56;1694159;83;21051;-61
2022/09/25 05:28:32;;;;;;;6.12;3.35;;;;;;;8.66;71.13;100488.69;1704719;82;21031;-61
2022/09/25 05:31:02;;;;;;;6.78;4.00;;;;;;;8.77;70.43;100494.48;1690429;82;21517;-61
2022/09/25 05:33:31;;;;;;;7.45;3.60;;;;;;;8.83;70.29;100493.23;1729393;81;21086;-60
2022/09/25 05:36:03;;;;;;;6.08;3.42;;;;;;;8.86;69.98;100496.47;1734019;81;21154;-62
2022/09/25 05:38:31;;;;;;;5.78;3.27;;;;;;;8.89;69.92;100492.31;1724617;81;21102;-62
2022/09/25 05:41:04;;;;;;;6.25;3.20;;;;;;;8.96;69.92;100493.17;1694156;82;21031;-62
2022/09/25 05:43:31;;;;;;;6.83;3.72;;;;;;;9.07;69.43;100486.69;1734076;81;21572;-62
2022/09/25 05:45:58;;;;;;;6.53;3.35;;;;;;;9.18;69.16;100497.71;1729968;81;21134;-61
2022/09/25 05:48:25;;;;;;;7.30;3.72;;;;;;;9.22;69.09;100492.62;1735220;81;21641;-61
2022/09/25 05:50:53;;;;;;;6.92;3.87;;;;;;;9.26;68.92;100496.68;1727371;81;21043;-62
2022/09/25 05:53:19;;;;;;;6.12;3.00;;;;;;;9.29;68.95;100502.55;1733869;81;21592;-61
2022/09/25 05:55:54;;;;;;;6.97;4.17;;;;;;;9.36;68.76;100504.25;1725822;81;21166;-62
2022/09/25 05:58:20;;;;;;;6.15;3.05;;;;;;;9.48;68.23;100509.94;1720117;82;21400;-61
2022/09/25 06:00:47;;;;;;;6.42;3.27;;;;;;;9.57;68.08;100503.65;1709258;81;21238;-62
2022/09/25 06:03:15;;;;;;;7.15;3.42;;;;;;;9.63;68.20;100507.11;1714008;82;21030;-62
2022/09/25 06:05:43;;;;;;;5.95;3.22;;;;;;;9.69;67.88;100511.92;1760225;79;21079;-62
2022/09/25 06:08:10;;;;;;;7.67;3.65;;;;;;;9.74;67.96;100507.16;1763576;79;21110;-62
2022/09/25 06:10:37;;;;;;;7.12;2.98;;;;;;;9.84;67.66;100504.20;1761478;80;21042;-62
2022/09/25 06:13:04;;;;;;;5.50;3.22;;;;;;;9.99;66.94;100514.05;1769982;79;21152;-61
2022/09/25 06:15:37;;;;;;;5.42;3.02;;;;;;;10.09;67.18;100508.94;1761631;80;21035;-62
2022/09/25 06:18:04;;;;;;;6.25;3.25;;;;;;;10.18;66.64;100510.84;1751923;80;21085;-62
2022/09/25 06:20:31;;;;;;;7.00;3.17;;;;;;;10.26;66.31;100514.70;1762787;79;21004;-61
2022/09/25 06:22:59;;;;;;;6.83;3.33;;;;;;;10.32;66.43;100517.73;1762413;79;21035;-62
2022/09/25 06:25:31;;;;;;;6.85;3.30;;;;;;;10.37;66.56;100518.67;1761104;79;21974;-63
2022/09/25 06:27:59;;;;;;;6.60;3.30;;;;;;;10.47;65.98;100520.12;1756224;80;21332;-63
2022/09/25 06:30:33;;;;;;;5.00;2.92;;;;;;;10.60;65.58;100518.21;1758119;79;21330;-63
2022/09/25 06:32:57;;;;;;;6.35;3.33;;;;;;;10.69;64.97;100520.14;1766672;79;21565;-63
2022/09/25 06:35:24;;;;;;;6.42;2.87;;;;;;;10.77;64.69;100516.39;1757307;80;21031;-63
2022/09/25 06:37:51;;;;;;;5.58;3.12;;;;;;;10.86;64.36;100520.58;1760406;79;21144;-63
2022/09/25 06:40:18;;;;;;;5.30;2.95;;;;;;;10.91;64.34;100519.28;1752854;79;21062;-63
2022/09/25 06:42:45;;;;;;;6.72;3.25;;;;;;;10.96;63.96;100520.20;1760341;79;21052;-63
2022/09/25 06:45:11;;;;;;;5.35;3.08;;;;;;;11.02;64.04;100517.59;1770206;80;21074;-62
2022/09/25 06:47:38;;;;;;;6.00;2.92;;;;;;;11.09;63.39;100520.08;1754982;80;21070;-63
2022/09/25 06:50:07;;;;;;;6.05;3.00;;;;;;;11.20;62.44;100525.33;1754581;80;21805;-63
2022/09/25 06:52:42;;;;;;;7.03;3.45;;;;;;;11.26;62.71;100514.31;1757766;80;21029;-61
2022/09/25 06:55:10;;;;;;;5.78;3.00;;;;;;;11.32;62.40;100524.81;1762000;79;21348;-63
2022/09/25 06:57:37;;;;;;;6.40;3.33;;;;;;;11.37;63.15;100521.81;1765931;79;21084;-63
2022/09/25 07:00:05;;;;;;;6.55;3.40;;;;;;;11.45;62.84;100518.08;1748685;80;21078;-62
2022/09/25 07:05:17;;;;;;;5.87;3.20;;;;;;;11.59;61.98;100523.53;1756843;80;21026;-62
2022/09/25 07:07:45;;;;;;;7.83;3.33;;;;;;;11.69;61.43;100522.64;1757526;80;21063;-62
2022/09/25 07:10:12;;;;;;;7.83;3.42;;;;;;;11.81;61.77;100510.73;1767701;80;21051;-62
2022/09/25 07:12:40;;;;;;;8.40;3.27;;;;;;;11.88;61.67;100518.02;1762779;79;21057;-62
2022/09/25 07:15:08;;;;;;;6.62;3.27;;;;;;;11.96;61.71;100516.56;1763317;79;21589;-62
2022/09/25 07:17:35;;;;;;;6.70;3.22;;;;;;;12.04;60.97;100514.12;1755058;80;21534;-62
2022/09/25 07:20:02;;;;;;;6.72;3.77;;;;;;;12.06;59.93;100516.14;1757817;79;21040;-62
2022/09/25 07:22:28;;;;;;;7.70;3.65;;;;;;;12.12;60.72;100515.63;1761283;80;21106;-63
2022/09/25 07:24:55;;;;;;;5.83;3.27;;;;;;;12.19;60.65;100513.31;1763439;79;21380;-62
2022/09/25 07:27:21;;;;;;;6.67;3.33;;;;;;;12.29;61.18;100507.59;1754666;80;22141;-63
2022/09/25 07:29:48;;;;;;;7.55;4.22;;;;;;;12.43;59.52;100516.97;1762322;79;21060;-63
2022/09/25 07:32:15;;;;;;;6.22;3.60;;;;;;;12.53;58.53;100510.42;1769995;79;21028;-63
2022/09/25 07:34:41;;;;;;;6.12;3.33;;;;;;;12.54;58.67;100515.56;1772246;79;21050;-63
2022/09/25 07:37:07;;;;;;;8.05;3.52;;;;;;;12.58;57.69;100514.81;1758211;79;21519;-62
2022/09/25 07:39:34;;;;;;;8.53;3.90;;;;;;;12.62;57.82;100511.78;1766670;80;21802;-63
2022/09/25 07:42:02;;;;;;;6.28;3.52;;;;;;;12.64;57.90;100513.80;1754738;80;21055;-63
2022/09/25 07:44:29;;;;;;;6.60;3.72;;;;;;;12.67;58.06;100517.96;1764151;80;21580;-63
2022/09/25 07:46:55;;;;;;;6.67;3.72;;;;;;;12.71;57.73;100506.64;1754757;79;21114;-63
2022/09/25 07:49:22;;;;;;;6.80;3.87;;;;;;;12.76;57.88;100503.97;1761408;80;21071;-63
2022/09/25 07:51:49;;;;;;;8.63;4.10;;;;;;;12.81;56.96;100507.05;1766458;79;21250;-63
2022/09/25 07:54:15;;;;;;;9.00;3.75;;;;;;;12.86;56.18;100509.30;1761996;79;21023;-63
2022/09/25 07:56:42;;;;;;;7.97;3.90;;;;;;;12.89;56.59;100501.07;1750878;79;21062;-63
2022/09/25 07:59:08;;;;;;;6.62;3.20;;;;;;;12.96;56.70;100504.02;1761569;79;21015;-63
2022/09/25 08:01:35;;;;;;;7.25;3.25;;;;;;;13.02;56.13;100510.08;1763516;79;21073;-64
2022/09/25 08:04:02;;;;;;;7.60;3.35;;;;;;;13.09;55.47;100506.41;1751500;79;21605;-63
2022/09/25 08:06:28;;;;;;;7.47;3.83;;;;;;;13.12;55.32;100516.22;1766412;80;21015;-64
2022/09/25 08:08:55;;;;;;;7.55;2.90;;;;;;;13.14;54.44;100505.02;1743436;80;21042;-66
2022/09/25 08:11:23;;;;;;;5.25;2.58;;;;;;;13.19;55.73;100508.09;1762564;80;21059;-63
2022/09/25 08:13:49;;;;;;;6.60;2.98;;;;;;;13.25;55.21;100516.47;1758392;80;21106;-64
2022/09/25 08:16:17;;;;;;;4.97;2.62;;;;;;;13.31;54.66;100512.77;1759166;79;21086;-64
2022/09/25 08:18:46;;;;;;;5.75;2.62;;;;;;;13.37;55.57;100508.78;1769690;79;21080;-63
2022/09/25 08:21:16;;;;;;;7.50;2.83;;;;;;;13.47;54.55;100504.34;1759623;79;22246;-64
2022/09/25 08:23:44;;;;;;;8.33;3.95;;;;;;;13.50;53.58;100504.06;1760929;80;21008;-64
2022/09/25 08:26:12;;;;;;;5.60;2.85;;;;;;;13.50;54.00;100515.96;1784895;79;21133;-64
2022/09/25 08:28:39;;;;;;;5.92;2.95;;;;;;;13.51;54.40;100503.56;1765361;79;21829;-64
2022/09/25 08:31:07;;;;;;;8.55;3.40;;;;;;;13.56;54.30;100509.27;1760388;79;21102;-64
2022/09/25 08:33:34;;;;;;;7.00;3.05;;;;;;;13.60;53.72;100512.00;1749375;80;21536;-64
2022/09/25 08:36:03;;;;;;;5.80;3.08;;;;;;;13.65;54.04;100504.95;1781738;79;21038;-64
2022/09/25 08:38:32;;;;;;;6.25;3.33;;;;;;;13.71;54.21;100503.91;1766768;79;21051;-64
2022/09/25 08:41:24;;;;;;;5.28;2.67;;;;;;;13.81;53.12;100515.80;1752620;80;21162;-65
2022/09/25 08:44:14;;;;;;;6.15;2.90;;;;;;;13.90;52.61;100492.48;1749853;79;21078;-64
2022/09/25 08:49:51;;;;;;;5.75;2.87;;;;;;;13.98;52.80;100493.09;1773410;79;21548;-62
2022/09/25 08:52:20;;;;;;;6.33;2.50;;;;;;;14.04;52.55;100496.49;1750444;80;21031;-63
2022/09/25 08:54:46;;;;;;;6.33;2.60;;;;;;;14.10;52.17;100487.99;1755546;79;21794;-63
2022/09/25 08:57:30;;;;;;;5.70;2.62;;;;;;;14.16;51.61;100493.69;1756621;80;21094;-63
2022/09/25 09:00:02;;;;;;;6.35;2.85;;;;;;;14.21;51.03;100493.59;1764634;79;21946;-63
2022/09/25 09:02:42;;;;;;;4.65;1.95;;;;;;;14.32;50.91;100492.58;1755412;80;21039;-63
2022/09/25 09:05:29;;;;;;;5.90;2.50;;;;;;;14.42;50.10;100483.28;1758954;79;21086;-63
2022/09/25 09:08:02;;;;;;;4.58;2.10;;;;;;;14.53;50.46;100487.58;1726040;82;21059;-63
2022/09/25 09:10:50;;;;;;;4.17;1.90;;;;;;;14.60;50.40;100494.80;1723014;82;21122;-63
2022/09/25 09:13:31;;;;;;;6.08;2.55;;;;;;;14.68;49.34;100484.31;1719363;82;21126;-63
2022/09/25 09:16:07;;;;;;;5.28;2.35;;;;;;;14.79;49.15;100470.52;1717506;82;21047;-63
2022/09/25 09:18:39;;;;;;;4.28;2.10;;;;;;;14.88;48.97;100469.64;1776435;79;21124;-63
2022/09/25 09:21:17;;;;;;;4.60;2.12;;;;;;;14.97;48.76;100459.97;1759824;80;21136;-63
2022/09/25 09:23:55;;;;;;;5.40;2.08;;;;;;;15.01;47.88;100462.64;1753178;80;21472;-65
2022/09/25 09:26:37;;;;;;;4.28;1.95;;;;;;;15.02;47.89;100479.72;1754891;80;21311;-65
2022/09/25 09:29:49;;;;;;;5.22;2.08;;;;;;;15.02;47.86;100461.17;1743762;80;21070;-64
2022/09/25 09:32:52;;;;;;;4.37;2.10;;;;;;;15.03;47.16;100462.03;1771734;79;22212;-64
2022/09/25 09:35:36;;;;;;;5.22;1.82;;;;;;;15.03;47.08;100455.41;1768885;79;22716;-64
2022/09/25 09:38:27;;;;;;;4.15;1.55;;;;;;;14.97;46.86;100455.99;1751724;80;22808;-64
2022/09/25 09:41:29;;;;;;;4.47;1.62;;;;;;;14.93;46.86;100457.25;1758045;80;21236;-64
2022/09/25 09:44:14;;;;;;;5.30;2.00;;;;;;;14.92;47.51;100458.26;1752832;79;21067;-64
2022/09/25 09:46:55;;;;;;;4.20;1.80;;;;;;;14.91;46.74;100452.13;1769561;79;21009;-64
2022/09/25 09:49:32;;;;;;;4.33;1.55;;;;;;;14.88;47.00;100456.41;1755457;80;21560;-64
2022/09/25 09:52:22;;;;;;;4.20;1.52;;;;;;;14.86;46.69;100461.84;1756149;80;21050;-64
2022/09/25 09:54:54;;;;;;;3.08;1.30;;;;;;;14.92;46.82;100452.95;1762627;79;21019;-64
2022/09/25 09:57:24;;;;;;;3.92;1.40;;;;;;;15.02;46.38;100453.22;1751861;80;21082;-64
2022/09/25 10:00:06;;;;;;;3.83;1.40;;;;;;;15.06;46.54;100453.75;1764619;79;21018;-64
2022/09/25 10:02:45;;;;;;;3.70;1.55;;;;;;;15.04;45.13;100453.90;1774120;79;21195;-64
2022/09/25 10:05:48;;;;;;;5.10;1.47;;;;;;;15.01;45.18;100460.00;1755330;79;20966;-64
2022/09/25 10:08:15;;;;;;;4.10;1.35;;;;;;;14.98;45.34;100453.70;1766530;79;21085;-64
2022/09/25 10:10:46;;;;;;;3.35;1.47;;;;;;;14.99;45.53;100450.05;1767192;79;21064;-64
2022/09/25 10:13:28;;;;;;;3.60;1.40;;;;;;;15.01;45.88;100437.00;1765921;79;21467;-63
2022/09/25 10:16:13;;;;;;;4.00;1.50;;;;;;;15.07;45.59;100442.18;1764815;79;21838;-64
2022/09/25 10:19:03;;;;;;;3.83;1.72;;;;;;;15.16;45.90;100439.11;1762981;79;21614;-64
2022/09/25 10:21:40;;;;;;;3.35;1.62;;;;;;;15.27;45.53;100441.55;1762427;79;21111;-64
2022/09/25 10:24:07;;;;;;;3.90;1.47;;;;;;;15.40;45.62;100438.52;1773698;79;21095;-64
2022/09/25 10:26:37;;;;;;;3.90;1.57;;;;;;;15.59;45.39;100442.30;1765659;79;21090;-66
2022/09/25 10:29:22;;;;;;;4.25;1.55;;;;;;;15.81;44.46;100435.37;1769540;80;21872;-64
2022/09/25 10:32:02;;;;;;;4.05;1.40;;;;;;;15.93;44.10;100438.91;1769199;79;21020;-63
2022/09/25 10:34:30;;;;;;;4.37;1.45;;;;;;;16.00;43.84;100432.48;1768865;79;21076;-64
2022/09/25 10:36:56;;;;;;;2.80;1.27;;;;;;;16.07;43.40;100436.20;1768286;79;21129;-65
2022/09/25 10:39:41;;;;;;;3.22;1.30;;;;;;;16.11;43.32;100422.94;1765712;80;21032;-65
2022/09/25 10:42:29;;;;;;;3.45;1.45;;;;;;;16.18;43.57;100419.66;1716873;82;21354;-65
2022/09/25 10:44:55;;;;;;;4.05;1.67;;;;;;;16.26;43.03;100421.03;1719791;81;21101;-65
2022/09/25 10:50:22;;;;;;;4.17;1.45;;;;;;;16.44;43.28;100423.09;1713621;81;21638;-65
2022/09/25 10:53:04;;;;;;;3.65;1.42;;;;;;;16.59;42.66;100417.16;1716268;81;21084;-65
2022/09/25 10:55:27;;;;;;;4.15;1.67;;;;;;;16.74;42.33;100412.88;1709453;81;21251;-65
2022/09/25 10:58:13;;;;;;;3.85;1.45;;;;;;;16.88;41.57;100406.15;1719033;81;21059;-63
2022/09/25 11:00:53;;;;;;;3.98;1.42;;;;;;;16.98;41.32;100412.63;1699130;82;21055;-63
2022/09/25 11:03:33;;;;;;;4.58;1.80;;;;;;;17.06;40.93;100417.95;1714074;81;21137;-64
2022/09/25 11:06:09;;;;;;;3.72;1.35;;;;;;;17.07;40.30;100397.84;1713310;81;21112;-63
2022/09/25 11:08:38;;;;;;;3.60;1.30;;;;;;;17.00;40.58;100391.54;1701348;83;21135;-63
2022/09/25 11:11:08;;;;;;;5.33;1.82;;;;;;;16.90;40.34;100418.77;1694562;83;21044;-63
2022/09/25 11:13:53;;;;;;;3.60;1.22;;;;;;;16.71;41.38;100402.59;1693276;82;21039;-64
2022/09/25 11:16:19;;;;;;;3.37;1.32;;;;;;;16.56;42.16;100400.20;1704418;83;21063;-65
2022/09/25 11:18:50;;;;;;;4.05;1.50;;;;;;;16.46;42.45;100401.19;1703041;82;21105;-65
2022/09/25 11:21:34;;;;;;;4.22;1.77;;;;;;;16.42;42.58;100405.64;1677725;84;22159;-65
2022/09/25 11:24:52;;;;;;;4.28;1.87;;;;;;;16.46;43.06;100407.83;1675128;83;21121;-64
2022/09/25 11:27:29;;;;;;;3.72;1.47;;;;;;;16.64;43.07;100404.22;1694475;84;21051;-65
2022/09/25 11:30:13;;;;;;;3.67;1.40;;;;;;;16.80;42.26;100396.30;1699522;82;21048;-65
2022/09/25 11:32:51;;;;;;;4.30;1.70;;;;;;;16.87;41.43;100400.48;1682354;83;21564;-64
2022/09/25 11:35:57;;;;;;;4.28;1.62;;;;;;;16.89;41.62;100392.70;1680920;83;21122;-64
2022/09/25 11:41:56;;;;;;;4.95;1.70;;;;;;;16.93;41.80;100393.20;1695558;83;21862;-64
2022/09/25 11:44:53;;;;;;;4.90;1.52;;;;;;;16.95;41.31;100383.23;1689686;82;21083;-65
2022/09/25 11:47:35;;;;;;;3.87;1.65;;;;;;;16.97;40.92;100375.91;1701860;84;21087;-65
2022/09/25 11:50:01;;;;;;;5.40;1.47;;;;;;;16.97;40.75;100381.23;1705305;83;21112;-65
2022/09/25 11:52:41;;;;;;;3.98;1.75;;;;;;;16.87;41.11;100388.02;1704266;83;21079;-64
2022/09/25 11:55:13;;;;;;;4.42;2.00;;;;;;;16.78;41.26;100387.66;1693100;83;21087;-65
2022/09/25 11:58:25;;;;;;;6.90;2.12;;;;;;;16.68;41.14;100388.30;1705837;84;21083;-65
2022/09/25 12:01:19;;;;;;;4.50;1.95;;;;;;;16.57;41.60;100389.92;1690343;84;21039;-65
2022/09/25 12:04:07;;;;;;;4.00;1.70;;;;;;;16.45;42.01;100385.41;1697439;83;21755;-64
2022/09/25 12:07:14;;;;;;;5.05;2.33;;;;;;;16.37;42.38;100394.67;1689409;81;21710;-65
2022/09/25 12:10:11;;;;;;;4.80;1.80;;;;;;;16.28;42.93;100387.17;1661246;85;22029;-64
2022/09/25 12:12:58;;;;;;;4.92;2.42;;;;;;;16.23;42.91;100390.30;1695947;82;20995;-64
2022/09/25 12:15:49;;;;;;;7.50;4.03;;;;;;;16.22;43.81;100393.11;1644606;83;21580;-64
2022/09/25 12:18:42;;;;;;;6.37;3.00;;;;;;;16.25;43.89;100385.66;1704237;82;22823;-64
2022/09/25 12:21:28;;;;;;;6.55;2.55;;;;;;;16.29;44.05;100388.34;1728384;81;21533;-65
2022/09/25 12:24:14;;;;;;;5.90;2.15;;;;;;;16.36;44.44;100381.90;1755472;80;21489;-65